Time;durP1;ratioP1;P1;durP2;ratioP2;P2;SDS_P1;SDS_P2;PMS_P1;PMS_P2;Temp;Humidity;BMP_temperature;BMP_pressure;BME280_temperature;BME280_humidity;BME280_pressure;Samples;Min_cycle;Max_cycle;Signal;HPM_P1;HPM_P2
2022/07/11 00:02:13;;;;;;;2.20;1.43;;;14.80;97.30;;;;;;5004578;28;20436;-82
2022/07/11 00:04:40;;;;;;;1.10;1.00;;;14.80;97.30;;;;;;5014513;28;20448;-83
2022/07/11 00:07:06;;;;;;;1.20;1.10;;;14.80;97.30;;;;;;5021218;28;20428;-83
2022/07/11 00:09:31;;;;;;;0.90;0.90;;;14.70;97.30;;;;;;5022527;28;20474;-82
2022/07/11 00:11:58;;;;;;;1.00;0.90;;;14.60;97.30;;;;;;5004320;28;20582;-82
2022/07/11 00:14:24;;;;;;;1.07;0.97;;;14.60;97.30;;;;;;5005802;28;20471;-84
2022/07/11 00:16:53;;;;;;;1.00;0.90;;;14.60;97.30;;;;;;5006006;28;20424;-83
2022/07/11 00:19:19;;;;;;;1.03;1.00;;;14.50;97.30;;;;;;5007160;28;20997;-82
2022/07/11 00:21:46;;;;;;;1.13;1.03;;;14.50;97.30;;;;;;4994004;28;20447;-83
2022/07/11 00:24:11;;;;;;;1.00;0.90;;;14.50;97.30;;;;;;5006467;28;20424;-83
2022/07/11 00:26:37;;;;;;;0.80;0.70;;;14.40;97.30;;;;;;4992188;28;20494;-83
2022/07/11 00:29:04;;;;;;;2.33;1.23;;;14.40;97.30;;;;;;5005708;28;20216;-83
2022/07/11 00:31:30;;;;;;;1.00;0.90;;;14.30;97.30;;;;;;5023355;28;20466;-83
2022/07/11 00:33:57;;;;;;;1.20;1.10;;;14.30;97.30;;;;;;5005371;28;20428;-84
2022/07/11 00:36:22;;;;;;;0.97;0.90;;;14.20;97.30;;;;;;4999861;28;20440;-83
2022/07/11 00:38:48;;;;;;;1.10;1.00;;;14.20;97.30;;;;;;5011313;28;20443;-83
2022/07/11 00:41:14;;;;;;;1.00;0.90;;;14.20;97.30;;;;;;5010470;28;20197;-82
2022/07/11 00:43:41;;;;;;;1.73;1.20;;;14.20;97.30;;;;;;5009901;28;20425;-85
2022/07/11 00:46:08;;;;;;;2.20;1.20;;;14.10;97.30;;;;;;5004853;28;20447;-83
2022/07/11 00:48:38;;;;;;;1.07;0.90;;;14.10;97.30;;;;;;5004760;28;20443;-83
2022/07/11 00:51:05;;;;;;;1.00;0.93;;;14.10;97.30;;;;;;5002966;28;20825;-82
2022/07/11 00:53:34;;;;;;;1.10;1.00;;;14.00;97.30;;;;;;5011815;28;20412;-83
2022/07/11 00:56:01;;;;;;;1.47;1.37;;;14.00;97.30;;;;;;5002161;28;20408;-83
2022/07/11 00:58:27;;;;;;;1.20;1.10;;;14.00;97.30;;;;;;5002855;28;20446;-83
2022/07/11 01:00:53;;;;;;;1.10;1.00;;;14.00;97.30;;;;;;5031240;28;20423;-82
2022/07/11 01:03:18;;;;;;;3.53;1.83;;;13.90;97.30;;;;;;5000914;28;20496;-83
2022/07/11 01:05:44;;;;;;;2.27;2.07;;;13.90;97.30;;;;;;5002034;28;20947;-82
2022/07/11 01:08:10;;;;;;;0.90;0.80;;;13.80;97.30;;;;;;5001807;28;20675;-82
2022/07/11 01:10:36;;;;;;;1.13;1.03;;;13.80;97.30;;;;;;5001097;28;20198;-83
2022/07/11 01:13:01;;;;;;;1.50;1.33;;;13.80;97.30;;;;;;5000755;28;20205;-82
2022/07/11 01:15:28;;;;;;;4.40;2.40;;;13.70;97.30;;;;;;4998139;28;20707;-82
2022/07/11 01:17:53;;;;;;;1.30;1.20;;;13.70;97.30;;;;;;5012082;28;20205;-83
2022/07/11 01:20:22;;;;;;;2.00;1.40;;;13.70;97.30;;;;;;4995408;28;20442;-81
2022/07/11 01:22:52;;;;;;;1.00;0.90;;;13.70;97.30;;;;;;4999772;28;20182;-81
2022/07/11 01:25:30;;;;;;;1.27;1.17;;;13.60;97.30;;;;;;5122335;27;20563;-83
2022/07/11 01:28:01;;;;;;;0.97;0.87;;;13.50;97.30;;;;;;5120311;28;20429;-82
2022/07/11 01:30:27;;;;;;;1.13;1.03;;;13.50;97.30;;;;;;5074799;28;20519;-83
2022/07/11 01:32:54;;;;;;;0.90;0.90;;;13.40;97.30;;;;;;5078857;28;20496;-83
2022/07/11 01:35:20;;;;;;;1.20;1.10;;;13.40;97.30;;;;;;5073664;28;20424;-83
2022/07/11 01:37:45;;;;;;;1.10;1.00;;;13.40;97.30;;;;;;5062279;28;20482;-84
2022/07/11 01:40:11;;;;;;;1.20;1.10;;;13.30;97.30;;;;;;5082007;28;20412;-84
2022/07/11 01:42:37;;;;;;;1.60;1.10;;;13.30;97.30;;;;;;5075254;28;20222;-83
2022/07/11 01:45:03;;;;;;;1.00;0.90;;;13.30;97.30;;;;;;5073760;28;20464;-83
2022/07/11 01:47:29;;;;;;;0.90;0.90;;;13.20;97.30;;;;;;5073410;28;20199;-83
2022/07/11 01:49:55;;;;;;;1.40;1.40;;;13.20;97.30;;;;;;5073593;28;20200;-82
2022/07/11 01:52:21;;;;;;;2.07;1.67;;;13.20;97.30;;;;;;5075697;28;20174;-83
2022/07/11 01:54:47;;;;;;;1.83;1.10;;;13.20;97.30;;;;;;5073709;28;20482;-85
2022/07/11 01:57:13;;;;;;;0.83;0.83;;;13.20;97.30;;;;;;5074672;28;20587;-83
2022/07/11 01:59:39;;;;;;;1.20;1.10;;;13.10;97.30;;;;;;5082202;28;21101;-83
2022/07/11 02:02:05;;;;;;;1.63;1.57;;;13.10;97.30;;;;;;5078633;28;20828;-83
2022/07/11 02:04:30;;;;;;;1.30;1.20;;;13.10;97.30;;;;;;5073109;28;20281;-84
2022/07/11 02:06:56;;;;;;;1.63;1.40;;;13.00;97.30;;;;;;5073894;28;20408;-83
2022/07/11 02:09:21;;;;;;;1.07;1.03;;;13.00;97.30;;;;;;5072883;28;20178;-84
2022/07/11 02:11:47;;;;;;;1.20;1.10;;;13.00;97.30;;;;;;5078104;28;20175;-82
2022/07/11 02:14:13;;;;;;;1.20;1.10;;;12.90;97.30;;;;;;5074290;28;20179;-83
2022/07/11 02:16:39;;;;;;;1.53;1.43;;;12.90;97.30;;;;;;5073385;28;20187;-83
2022/07/11 02:19:06;;;;;;;2.30;1.07;;;12.90;97.30;;;;;;5075871;28;20486;-83
2022/07/11 02:21:32;;;;;;;2.17;1.10;;;12.90;97.30;;;;;;5074406;28;20248;-83
2022/07/11 02:23:58;;;;;;;1.20;1.10;;;12.90;97.30;;;;;;5073203;28;21020;-83
2022/07/11 02:26:23;;;;;;;1.10;1.00;;;12.90;97.30;;;;;;5076364;28;20420;-83
2022/07/11 02:28:49;;;;;;;1.10;1.00;;;12.90;97.30;;;;;;5079903;28;20199;-83
2022/07/11 02:31:15;;;;;;;1.10;1.00;;;12.80;97.30;;;;;;5074391;28;20225;-83
2022/07/11 02:33:40;;;;;;;1.50;1.40;;;12.80;97.30;;;;;;5077277;28;20170;-85
2022/07/11 02:36:07;;;;;;;4.83;1.33;;;12.80;97.30;;;;;;5061952;28;20180;-83
2022/07/11 02:38:33;;;;;;;1.10;1.00;;;12.80;97.30;;;;;;5061252;28;20207;-85
2022/07/11 02:40:59;;;;;;;2.17;1.40;;;12.80;97.30;;;;;;5060490;28;20934;-83
2022/07/11 02:43:25;;;;;;;1.20;1.10;;;12.80;97.30;;;;;;5054679;28;20458;-83
2022/07/11 02:45:51;;;;;;;1.10;1.00;;;12.70;97.30;;;;;;5070142;28;20416;-81
2022/07/11 02:48:17;;;;;;;1.20;1.10;;;12.70;97.30;;;;;;5066183;28;20537;-82
2022/07/11 02:50:42;;;;;;;1.50;1.30;;;12.70;97.30;;;;;;5063034;28;20175;-81
2022/07/11 02:53:08;;;;;;;1.30;1.20;;;12.70;97.30;;;;;;5059470;28;20190;-84
2022/07/11 02:55:33;;;;;;;1.07;0.90;;;12.70;97.30;;;;;;5058273;28;20664;-84
2022/07/11 02:57:59;;;;;;;1.93;1.67;;;12.70;97.30;;;;;;5062416;28;20191;-82
2022/07/11 03:00:24;;;;;;;1.00;0.90;;;12.70;97.30;;;;;;5058758;28;20614;-83
2022/07/11 03:02:50;;;;;;;1.50;1.40;;;12.70;97.30;;;;;;5058171;28;20656;-82
2022/07/11 03:05:16;;;;;;;1.20;1.10;;;12.70;97.30;;;;;;5059514;28;20687;-81
2022/07/11 03:07:41;;;;;;;1.83;1.47;;;12.60;97.30;;;;;;5074810;28;20194;-85
2022/07/11 03:10:07;;;;;;;1.33;1.20;;;12.60;97.30;;;;;;5081035;28;20175;-82
2022/07/11 03:12:33;;;;;;;1.47;1.43;;;12.60;97.30;;;;;;5062810;28;20233;-83
2022/07/11 03:14:58;;;;;;;1.13;1.03;;;12.60;97.30;;;;;;5077254;28;20402;-81
2022/07/11 03:17:24;;;;;;;1.07;1.07;;;12.50;97.30;;;;;;5041653;28;20204;-81
2022/07/11 03:19:50;;;;;;;1.30;1.20;;;12.50;97.30;;;;;;5038364;28;20183;-82
2022/07/11 03:22:16;;;;;;;1.23;1.17;;;12.50;97.30;;;;;;5038167;28;20554;-85
2022/07/11 03:24:42;;;;;;;1.80;1.40;;;12.50;97.30;;;;;;5055661;28;20231;-83
2022/07/11 03:27:08;;;;;;;1.23;1.07;;;12.50;97.30;;;;;;5054474;28;20487;-83
2022/07/11 03:29:34;;;;;;;1.40;1.10;;;12.50;97.30;;;;;;5054769;28;20437;-83
2022/07/11 03:32:00;;;;;;;1.20;1.10;;;12.40;97.30;;;;;;5054401;28;20410;-85
2022/07/11 03:34:26;;;;;;;0.83;0.80;;;12.40;97.30;;;;;;5054845;28;21106;-83
2022/07/11 03:36:52;;;;;;;1.20;1.13;;;12.40;97.30;;;;;;5054555;28;20236;-85
2022/07/11 03:39:17;;;;;;;1.80;1.53;;;12.40;97.30;;;;;;5054485;28;20199;-83
2022/07/11 03:41:43;;;;;;;1.20;1.07;;;12.40;97.30;;;;;;5057148;28;20201;-82
2022/07/11 03:44:12;;;;;;;1.50;1.47;;;12.30;97.30;;;;;;5075025;28;20201;-84
2022/07/11 03:47:01;;;;;;;1.17;1.07;;;12.30;97.30;;;;;;5055931;28;20218;-82
2022/07/11 03:49:30;;;;;;;1.20;1.10;;;12.40;97.30;;;;;;5057258;28;20653;-85
2022/07/11 03:52:01;;;;;;;1.27;1.10;;;12.40;97.30;;;;;;5053492;28;20917;-85
2022/07/11 03:54:30;;;;;;;1.30;1.00;;;12.40;97.30;;;;;;5053510;28;20415;-83
2022/07/11 03:57:21;;;;;;;1.40;1.30;;;12.30;97.30;;;;;;5053445;28;20430;-83
2022/07/11 03:59:49;;;;;;;1.17;1.07;;;12.30;97.30;;;;;;5037123;28;20519;-83
2022/07/11 04:02:21;;;;;;;1.70;1.60;;;12.40;97.30;;;;;;5038448;28;20410;-83
2022/07/11 04:04:50;;;;;;;1.30;1.20;;;12.40;97.30;;;;;;5056766;28;20571;-83
2022/07/11 04:07:42;;;;;;;2.30;1.53;;;12.40;97.30;;;;;;5061070;28;20456;-83
2022/07/11 04:10:11;;;;;;;1.60;1.50;;;12.40;97.30;;;;;;5056272;28;20427;-83
2022/07/11 04:12:40;;;;;;;1.47;1.37;;;12.40;97.30;;;;;;5055945;28;20636;-82
2022/07/11 04:15:08;;;;;;;1.50;1.40;;;12.50;97.30;;;;;;5055777;28;20440;-81
2022/07/11 04:17:34;;;;;;;1.10;0.90;;;12.50;97.30;;;;;;5057652;28;20445;-83
2022/07/11 04:20:00;;;;;;;1.37;1.10;;;12.50;97.30;;;;;;5056655;28;20417;-81
2022/07/11 04:22:29;;;;;;;2.00;1.30;;;12.60;97.30;;;;;;5056582;28;20171;-81
2022/07/11 04:24:58;;;;;;;1.20;1.10;;;12.60;97.30;;;;;;5025196;28;20264;-84
2022/07/11 04:27:29;;;;;;;1.20;1.10;;;12.60;97.30;;;;;;5014721;28;20489;-82
2022/07/11 04:29:54;;;;;;;1.17;1.07;;;12.60;97.30;;;;;;5060491;28;20466;-84
2022/07/11 04:32:20;;;;;;;2.33;0.80;;;12.70;97.30;;;;;;5036103;28;20451;-85
2022/07/11 04:34:47;;;;;;;1.20;1.10;;;12.70;97.30;;;;;;5034976;28;20213;-83
2022/07/11 04:37:18;;;;;;;1.43;1.33;;;12.70;97.30;;;;;;5066189;28;20427;-83
2022/07/11 04:39:46;;;;;;;1.67;1.60;;;12.70;97.30;;;;;;5036381;28;20427;-82
2022/07/11 04:42:12;;;;;;;1.10;1.00;;;12.80;97.30;;;;;;5063508;28;20419;-82
2022/07/11 04:44:38;;;;;;;1.00;0.90;;;12.90;97.30;;;;;;5058725;28;20466;-82
2022/07/11 04:47:23;;;;;;;1.87;1.73;;;12.90;97.30;;;;;;5064808;28;20423;-82
2022/07/11 04:49:51;;;;;;;13.50;2.60;;;12.90;97.30;;;;;;5022654;28;20295;-83
2022/07/11 04:52:17;;;;;;;1.93;1.17;;;13.00;97.30;;;;;;5060492;28;20510;-82
2022/07/11 04:54:42;;;;;;;1.20;1.20;;;13.00;97.30;;;;;;5050003;28;20428;-82
2022/07/11 04:57:08;;;;;;;1.30;1.20;;;13.10;97.30;;;;;;5025567;28;20799;-81
2022/07/11 04:59:34;;;;;;;0.93;0.83;;;13.10;97.30;;;;;;5034859;28;20638;-82
2022/07/11 05:02:00;;;;;;;1.30;1.03;;;13.20;97.30;;;;;;5037346;28;20469;-84
2022/07/11 05:04:25;;;;;;;1.23;1.17;;;13.20;97.30;;;;;;5071184;28;20216;-83
2022/07/11 05:06:51;;;;;;;1.10;1.00;;;13.20;97.30;;;;;;5071389;28;20177;-82
2022/07/11 05:09:20;;;;;;;1.63;1.43;;;13.30;97.30;;;;;;5064340;28;20577;-82
2022/07/11 05:11:45;;;;;;;1.37;1.10;;;13.30;97.30;;;;;;5030993;28;20593;-83
2022/07/11 05:14:11;;;;;;;1.10;1.00;;;13.30;97.30;;;;;;5030990;28;20419;-81
2022/07/11 05:16:39;;;;;;;1.10;1.00;;;13.40;97.30;;;;;;5023075;28;20283;-82
2022/07/11 05:19:10;;;;;;;1.57;1.33;;;13.40;97.30;;;;;;5030430;28;20204;-84
2022/07/11 05:21:42;;;;;;;1.30;1.20;;;13.50;97.30;;;;;;5057938;28;20526;-84
2022/07/11 05:24:53;;;;;;;3.07;1.67;;;13.50;97.30;;;;;;5074725;28;20535;-85
2022/07/11 05:27:22;;;;;;;1.77;1.67;;;13.60;97.30;;;;;;5042317;28;20442;-83
2022/07/11 05:29:47;;;;;;;1.33;1.23;;;13.70;97.30;;;;;;5050008;28;20430;-84
2022/07/11 05:32:13;;;;;;;1.73;1.63;;;13.70;97.30;;;;;;5038434;28;20922;-83
2022/07/11 05:34:39;;;;;;;7.10;1.30;;;13.80;97.30;;;;;;5047377;28;20433;-83
2022/07/11 05:37:11;;;;;;;1.40;1.30;;;13.90;97.30;;;;;;5051048;28;20225;-83
2022/07/11 05:39:40;;;;;;;1.73;1.63;;;13.90;97.30;;;;;;5054945;28;20422;-83
2022/07/11 05:42:10;;;;;;;1.10;0.97;;;14.00;97.30;;;;;;5051204;28;20936;-84
2022/07/11 05:44:42;;;;;;;1.67;1.57;;;14.00;97.30;;;;;;5050123;28;20968;-83
2022/07/11 05:47:09;;;;;;;2.90;1.10;;;14.00;97.30;;;;;;5070582;28;20430;-84
2022/07/11 05:49:39;;;;;;;1.10;1.00;;;14.00;97.30;;;;;;5049411;28;20425;-84
2022/07/11 05:52:08;;;;;;;1.20;1.10;;;14.00;97.30;;;;;;5050905;28;20410;-84
2022/07/11 05:54:41;;;;;;;1.00;0.90;;;14.10;97.30;;;;;;5049330;28;20848;-83
2022/07/11 05:57:10;;;;;;;1.87;1.23;;;14.10;97.30;;;;;;5049623;28;20477;-84
2022/07/11 05:59:41;;;;;;;1.23;1.23;;;14.10;97.30;;;;;;5046245;28;20430;-84
2022/07/11 06:02:12;;;;;;;1.40;1.10;;;14.10;97.30;;;;;;5041405;28;20414;-84
2022/07/11 06:04:42;;;;;;;1.57;1.47;;;14.20;97.30;;;;;;5049025;28;20446;-83
2022/07/11 06:07:11;;;;;;;1.37;1.13;;;14.20;97.30;;;;;;5045553;28;20422;-83
2022/07/11 06:09:40;;;;;;;0.83;0.77;;;14.30;97.30;;;;;;5049310;28;20419;-84
2022/07/11 06:12:11;;;;;;;1.10;1.00;;;14.40;97.30;;;;;;5054452;28;20422;-83
2022/07/11 06:14:40;;;;;;;1.13;1.03;;;14.50;97.30;;;;;;5054580;28;20429;-83
2022/07/11 06:17:06;;;;;;;3.20;1.40;;;14.50;97.30;;;;;;5058725;28;20809;-84
2022/07/11 06:19:32;;;;;;;31.70;1.53;;;14.60;97.30;;;;;;5052891;28;20413;-84
2022/07/11 06:21:58;;;;;;;1.10;1.00;;;14.70;97.30;;;;;;5053306;28;20422;-84
2022/07/11 06:24:23;;;;;;;1.10;1.00;;;14.70;97.30;;;;;;5041626;28;20285;-84
2022/07/11 06:26:49;;;;;;;1.20;1.10;;;14.80;97.30;;;;;;5033051;28;20176;-83
2022/07/11 06:29:14;;;;;;;1.50;1.50;;;14.80;97.30;;;;;;5026825;28;20636;-84
2022/07/11 06:31:41;;;;;;;14.77;1.30;;;14.90;97.30;;;;;;5028343;28;20174;-83
2022/07/11 06:34:09;;;;;;;1.10;1.00;;;15.00;97.30;;;;;;5034898;28;20177;-84
2022/07/11 06:36:41;;;;;;;2.10;1.70;;;15.00;97.30;;;;;;5035100;28;20510;-84
2022/07/11 06:39:10;;;;;;;1.03;0.93;;;15.10;97.30;;;;;;5033815;28;20443;-84
2022/07/11 06:41:39;;;;;;;1.10;1.00;;;15.10;97.30;;;;;;5031987;28;20427;-84
2022/07/11 06:44:31;;;;;;;1.30;1.20;;;15.10;97.30;;;;;;5065355;28;20458;-84
2022/07/11 06:47:00;;;;;;;1.10;1.00;;;15.20;97.30;;;;;;5019612;28;20415;-83
2022/07/11 06:49:29;;;;;;;1.20;1.10;;;15.30;97.30;;;;;;5066161;28;20444;-84
2022/07/11 06:52:01;;;;;;;1.77;1.67;;;15.30;97.30;;;;;;5032314;28;20519;-85
2022/07/11 06:54:30;;;;;;;0.90;0.80;;;15.40;97.30;;;;;;5032833;28;20510;-84
2022/07/11 06:57:02;;;;;;;1.50;1.40;;;15.60;97.30;;;;;;5032358;28;20415;-84
2022/07/11 06:59:31;;;;;;;1.10;1.00;;;15.70;97.30;;;;;;5032543;28;20496;-84
2022/07/11 07:02:09;;;;;;;1.10;1.00;;;15.70;97.30;;;;;;5046463;28;20420;-84
2022/07/11 07:04:39;;;;;;;0.90;0.80;;;15.70;97.30;;;;;;5032141;28;20455;-84
2022/07/11 07:07:11;;;;;;;2.10;1.80;;;15.70;97.30;;;;;;5031754;28;20781;-84
2022/07/11 07:09:41;;;;;;;1.10;1.00;;;15.80;97.30;;;;;;5027205;28;20412;-84
2022/07/11 07:12:10;;;;;;;1.00;0.90;;;15.80;97.30;;;;;;5036891;28;20917;-84
2022/07/11 07:14:36;;;;;;;0.90;0.80;;;15.90;97.30;;;;;;5027237;28;20426;-83
2022/07/11 07:17:02;;;;;;;1.10;1.00;;;16.00;97.30;;;;;;5036836;28;20415;-83
2022/07/11 07:19:27;;;;;;;1.10;1.03;;;16.00;97.30;;;;;;5033794;28;20185;-84
2022/07/11 07:21:53;;;;;;;1.10;1.00;;;16.00;97.10;;;;;;5031599;28;20316;-85
2022/07/11 07:24:18;;;;;;;1.20;1.07;;;16.00;96.00;;;;;;5031431;28;20228;-84
2022/07/11 07:26:46;;;;;;;1.00;0.90;;;15.90;96.20;;;;;;5036407;28;20181;-84
2022/07/11 07:29:12;;;;;;;1.43;1.37;;;16.00;96.80;;;;;;5068166;28;20451;-83
2022/07/11 07:31:40;;;;;;;1.03;0.97;;;16.00;96.40;;;;;;5033697;28;20446;-84
2022/07/11 07:34:25;;;;;;;1.00;0.90;;;16.10;96.50;;;;;;5033866;28;20181;-84
2022/07/11 07:36:51;;;;;;;1.10;1.03;;;16.20;96.80;;;;;;5034305;28;20430;-84
2022/07/11 07:39:17;;;;;;;1.43;1.33;;;16.30;96.90;;;;;;5035878;28;20443;-85
2022/07/11 07:41:42;;;;;;;3.60;1.47;;;16.40;96.00;;;;;;5038336;28;20172;-84
2022/07/11 07:44:09;;;;;;;0.90;0.80;;;16.40;94.20;;;;;;5036786;28;21121;-83
2022/07/11 07:46:34;;;;;;;1.00;0.90;;;16.40;94.40;;;;;;5034386;28;20694;-83
2022/07/11 07:49:00;;;;;;;1.00;0.90;;;16.40;94.30;;;;;;5034468;28;20435;-84
2022/07/11 07:51:26;;;;;;;1.00;0.90;;;16.50;94.20;;;;;;5035929;28;20176;-83
2022/07/11 07:53:51;;;;;;;1.00;0.90;;;16.50;94.20;;;;;;5033139;28;20192;-85
2022/07/11 07:56:17;;;;;;;0.87;0.80;;;16.60;94.00;;;;;;5066517;28;20208;-84
2022/07/11 07:58:42;;;;;;;0.97;0.90;;;16.80;94.10;;;;;;5034440;28;20196;-85
2022/07/11 08:03:52;;;;;;;3.13;1.73;;;16.90;90.80;;;;;;5034326;28;20621;-84
2022/07/11 08:06:19;;;;;;;2.70;1.00;;;17.00;91.80;;;;;;5032622;28;20490;-84
2022/07/11 08:08:50;;;;;;;1.33;1.23;;;17.00;91.00;;;;;;5032841;28;20827;-86
2022/07/11 08:11:18;;;;;;;0.90;0.90;;;17.20;91.50;;;;;;5037343;28;20493;-83
2022/07/11 08:13:44;;;;;;;1.30;1.20;;;17.30;91.40;;;;;;5069280;28;20442;-82
2022/07/11 08:16:10;;;;;;;1.10;1.00;;;17.40;90.90;;;;;;5032880;28;20420;-83
2022/07/11 08:18:38;;;;;;;1.20;1.10;;;17.40;91.00;;;;;;5030044;28;20473;-84
2022/07/11 08:21:04;;;;;;;0.90;0.90;;;17.50;90.80;;;;;;5038848;28;20180;-84
2022/07/11 08:23:30;;;;;;;1.13;1.03;;;17.70;91.40;;;;;;5074306;28;20461;-83
2022/07/11 08:25:57;;;;;;;1.00;0.90;;;17.80;91.00;;;;;;5042578;28;20661;-86
2022/07/11 08:28:23;;;;;;;1.03;0.93;;;17.80;91.50;;;;;;5052926;28;20914;-87
2022/07/11 08:30:48;;;;;;;1.00;0.90;;;17.80;91.20;;;;;;5053440;28;20499;-88
2022/07/11 08:33:14;;;;;;;1.00;0.90;;;17.80;91.70;;;;;;5052911;28;20560;-87
2022/07/11 08:35:40;;;;;;;1.30;1.10;;;17.70;91.90;;;;;;5054231;28;20160;-86
2022/07/11 08:38:05;;;;;;;1.00;0.90;;;17.60;91.60;;;;;;5053438;28;20208;-88
2022/07/11 08:40:31;;;;;;;4.73;1.80;;;17.50;91.70;;;;;;5053585;28;20179;-88
2022/07/11 08:42:58;;;;;;;1.20;1.10;;;17.40;91.40;;;;;;5046317;28;20184;-87
2022/07/11 08:45:29;;;;;;;1.17;1.13;;;17.40;91.20;;;;;;5053502;28;20200;-87
2022/07/11 08:47:57;;;;;;;1.07;1.00;;;17.40;90.70;;;;;;5062641;28;20445;-88
2022/07/11 08:50:23;;;;;;;1.03;0.93;;;17.60;89.90;;;;;;5045465;28;20484;-87
2022/07/11 08:52:49;;;;;;;1.27;1.17;;;17.70;89.00;;;;;;5040759;28;20419;-87
2022/07/11 08:55:14;;;;;;;2.70;1.97;;;17.80;88.10;;;;;;5048979;28;21017;-88
2022/07/11 08:57:40;;;;;;;1.10;1.00;;;18.00;87.20;;;;;;5070328;28;20261;-87
2022/07/11 09:00:09;;;;;;;18.33;1.97;;;18.00;86.10;;;;;;5051239;28;20995;-87
2022/07/11 09:02:35;;;;;;;1.33;1.33;;;18.10;87.30;;;;;;5053855;28;20236;-88
2022/07/11 09:05:05;;;;;;;1.20;1.10;;;18.20;87.30;;;;;;5052409;28;20449;-88
2022/07/11 09:07:31;;;;;;;1.33;1.30;;;18.20;87.50;;;;;;5052522;28;20442;-87
2022/07/11 09:09:57;;;;;;;7.73;1.73;;;18.30;86.90;;;;;;5052884;28;20431;-88
2022/07/11 09:12:23;;;;;;;2.53;2.00;;;18.40;86.80;;;;;;5052385;28;20422;-88
2022/07/11 09:14:51;;;;;;;1.00;0.90;;;18.40;85.40;;;;;;5052225;28;20187;-88
2022/07/11 09:17:28;;;;;;;1.17;1.07;;;18.30;83.60;;;;;;5052198;28;20446;-87
2022/07/11 09:19:54;;;;;;;1.00;0.90;;;18.20;84.40;;;;;;5052372;28;20418;-88
2022/07/11 09:25:31;;;;;;;1.10;1.00;;;18.40;84.80;;;;;;5070259;28;20603;-87
2022/07/11 09:28:05;;;;;;;5.13;1.23;;;18.60;84.00;;;;;;5068625;28;20833;-88
2022/07/11 09:30:34;;;;;;;3.83;1.50;;;18.70;84.70;;;;;;5054535;28;20433;-87
2022/07/11 09:33:09;;;;;;;3.73;1.13;;;18.80;84.20;;;;;;5053568;28;21276;-88
2022/07/11 09:35:40;;;;;;;1.03;0.93;;;19.00;84.50;;;;;;5069307;28;20420;-87
2022/07/11 09:38:16;;;;;;;1.43;1.10;;;19.10;83.10;;;;;;5050865;28;20464;-88
2022/07/11 09:40:46;;;;;;;1.20;1.10;;;19.20;83.80;;;;;;5054734;28;20422;-88
2022/07/11 09:43:13;;;;;;;4.73;2.03;;;19.10;84.00;;;;;;5054823;28;20508;-89
2022/07/11 09:45:39;;;;;;;4.93;1.67;;;19.10;84.40;;;;;;5056371;28;20475;-88
2022/07/11 09:48:10;;;;;;;4.73;1.37;;;19.00;83.90;;;;;;5058944;28;20433;-89
2022/07/11 09:50:39;;;;;;;1.10;1.00;;;19.00;84.30;;;;;;5058958;28;20444;-88
2022/07/11 09:53:16;;;;;;;1.30;1.20;;;19.00;83.50;;;;;;5059614;28;20760;-88
2022/07/11 09:55:46;;;;;;;16.53;1.87;;;19.10;83.50;;;;;;5059354;28;20479;-88
2022/07/11 09:58:16;;;;;;;1.67;0.93;;;19.20;83.50;;;;;;5059674;28;20443;-88
2022/07/11 10:00:44;;;;;;;1.03;1.03;;;19.40;82.70;;;;;;5064320;28;20456;-88
2022/07/11 10:03:11;;;;;;;1.47;1.33;;;19.50;82.80;;;;;;5059348;28;20421;-88
2022/07/11 10:05:37;;;;;;;1.00;0.90;;;19.50;83.30;;;;;;5058817;28;20461;-88
2022/07/11 10:08:04;;;;;;;1.00;0.90;;;19.60;82.90;;;;;;5059180;28;20433;-88
2022/07/11 10:10:31;;;;;;;1.20;1.10;;;19.70;82.10;;;;;;5059033;28;20502;-87
2022/07/11 10:12:57;;;;;;;2.20;1.00;;;19.70;82.40;;;;;;5059268;28;20421;-87
2022/07/11 10:15:44;;;;;;;1.20;1.10;;;19.80;82.10;;;;;;5059095;28;20440;-88
2022/07/11 10:18:31;;;;;;;1.33;1.27;;;19.90;81.20;;;;;;5038733;28;20478;-85
2022/07/11 10:21:09;;;;;;;0.90;0.80;;;20.00;82.80;;;;;;5058788;28;20421;-87
2022/07/11 10:23:55;;;;;;;1.00;0.90;;;20.20;82.20;;;;;;5058414;28;20468;-84
2022/07/11 10:26:35;;;;;;;1.23;1.00;;;20.40;80.60;;;;;;5077303;28;20887;-84
2022/07/11 10:29:23;;;;;;;4.70;1.30;;;20.50;80.10;;;;;;5061048;28;20443;-84
2022/07/11 10:32:08;;;;;;;0.90;0.80;;;20.40;80.70;;;;;;5058749;28;20468;-83
2022/07/11 10:34:34;;;;;;;0.80;0.80;;;20.30;80.60;;;;;;5059086;28;20425;-84
2022/07/11 10:37:08;;;;;;;1.20;1.10;;;20.20;81.60;;;;;;5059488;28;20489;-90
2022/07/11 10:39:36;;;;;;;1.10;1.00;;;20.30;80.20;;;;;;5058941;28;20417;-84
2022/07/11 10:42:04;;;;;;;2.20;1.43;;;20.30;79.80;;;;;;5086975;28;20456;-84
2022/07/11 10:44:52;;;;;;;0.80;0.70;;;20.40;80.30;;;;;;5057844;28;20465;-87
2022/07/11 10:47:41;;;;;;;1.10;1.00;;;20.50;80.10;;;;;;5088580;28;20441;-88
2022/07/11 10:54:32;;;;;;;0.90;0.90;;;20.70;78.90;;;;;;4994343;28;20478;-87
2022/07/11 11:09:39;;;;;;;1.33;1.30;;;20.50;80.50;;;;;;5037589;22;20858;-87
2022/07/11 11:12:05;;;;;;;1.20;1.10;;;20.40;80.40;;;;;;5034457;28;20419;-88
2022/07/11 11:14:30;;;;;;;0.93;0.83;;;20.30;80.60;;;;;;5052288;28;20430;-88
2022/07/11 11:17:41;;;;;;;3.07;1.70;;;20.30;81.40;;;;;;5069100;28;20422;-86
2022/07/11 11:20:27;;;;;;;1.00;0.90;;;20.50;80.70;;;;;;5071997;28;20179;-88
2022/07/11 11:23:09;;;;;;;1.43;1.17;;;20.70;80.40;;;;;;5062024;28;20421;-86
2022/07/11 11:25:37;;;;;;;1.50;1.40;;;21.10;78.50;;;;;;5074031;28;20464;-87
2022/07/11 11:28:04;;;;;;;0.90;0.80;;;21.30;77.80;;;;;;5066995;28;20436;-88
2022/07/11 11:30:31;;;;;;;0.90;0.90;;;21.40;77.20;;;;;;5063827;28;20449;-90
2022/07/11 11:32:57;;;;;;;1.07;1.00;;;21.40;77.80;;;;;;5072881;28;20424;-89
2022/07/11 11:35:23;;;;;;;4.23;1.43;;;21.50;77.90;;;;;;5086151;28;20421;-84
2022/07/11 11:37:48;;;;;;;1.03;0.93;;;21.50;77.50;;;;;;5071248;28;20199;-89
2022/07/11 11:40:19;;;;;;;1.60;1.30;;;21.50;77.40;;;;;;5055682;28;20187;-90
2022/07/11 11:42:46;;;;;;;1.20;1.10;;;21.50;78.00;;;;;;5078008;28;20179;-89
2022/07/11 11:45:12;;;;;;;1.00;0.90;;;21.50;78.40;;;;;;5068878;28;20819;-89
2022/07/11 11:47:56;;;;;;;0.97;0.90;;;21.60;77.60;;;;;;5078257;28;20437;-90
2022/07/11 11:50:22;;;;;;;1.07;0.97;;;21.60;78.10;;;;;;5053741;28;20421;-88
2022/07/11 11:52:47;;;;;;;1.10;1.00;;;21.70;77.10;;;;;;5055133;28;20410;-89
2022/07/11 11:55:13;;;;;;;1.37;1.27;;;21.80;79.50;;;;;;5055799;28;20406;-89
2022/07/11 11:57:40;;;;;;;0.90;0.80;;;22.00;78.20;;;;;;5054917;28;20517;-88
2022/07/11 12:00:21;;;;;;;1.00;0.90;;;22.10;77.20;;;;;;5052058;28;20231;-89
2022/07/11 12:02:47;;;;;;;1.03;0.93;;;22.20;77.20;;;;;;5066978;28;20419;-88
2022/07/11 12:05:12;;;;;;;1.10;1.00;;;22.20;77.20;;;;;;5065791;28;20452;-88
2022/07/11 12:07:38;;;;;;;4.20;1.47;;;22.30;75.90;;;;;;5046580;28;20345;-90
2022/07/11 12:10:04;;;;;;;1.00;0.90;;;22.30;76.50;;;;;;5052960;28;20180;-91
2022/07/11 12:12:43;;;;;;;2.50;1.30;;;22.40;76.80;;;;;;5036896;28;20190;-91
2022/07/11 12:16:39;;;;;;;0.90;0.80;;;22.40;75.70;;;;;;5052069;28;21073;-88
2022/07/11 12:18:21;;;;;;;1.10;1.00;;;22.50;77.00;;;;;;5044813;28;20446;-88
2022/07/11 12:20:46;;;;;;;1.00;0.90;;;22.70;79.00;;;;;;5049905;28;20433;-87
2022/07/11 12:23:16;;;;;;;1.10;1.00;;;22.80;75.20;;;;;;5066640;28;20188;-88
2022/07/11 12:25:43;;;;;;;1.00;1.00;;;23.00;75.90;;;;;;5066367;28;20231;-87
2022/07/11 12:28:09;;;;;;;1.03;0.90;;;23.00;72.70;;;;;;5069797;28;20516;-87
2022/07/11 12:30:36;;;;;;;1.03;1.00;;;23.00;75.50;;;;;;5052587;28;20410;-87
2022/07/11 12:33:04;;;;;;;1.00;0.90;;;23.20;73.40;;;;;;5053797;28;20425;-87
2022/07/11 12:35:29;;;;;;;1.80;1.63;;;23.20;73.40;;;;;;5053207;28;20417;-88
2022/07/11 12:37:55;;;;;;;0.90;0.80;;;23.30;73.80;;;;;;5055742;28;20981;-88
2022/07/11 12:40:21;;;;;;;1.00;0.90;;;23.30;74.50;;;;;;5066534;28;20261;-89
2022/07/11 12:42:47;;;;;;;0.87;0.77;;;23.50;74.30;;;;;;5057481;28;20288;-92
2022/07/11 12:45:15;;;;;;;0.97;0.87;;;23.60;72.10;;;;;;5052051;28;20543;-90
2022/07/11 12:47:45;;;;;;;1.67;0.90;;;23.70;72.20;;;;;;5054308;28;20438;-91
2022/07/11 12:50:18;;;;;;;1.03;0.93;;;23.70;71.90;;;;;;5054273;28;20471;-90
2022/07/11 12:52:48;;;;;;;0.90;0.80;;;23.50;71.00;;;;;;5056228;28;20424;-88
2022/07/11 12:55:27;;;;;;;1.00;0.90;;;23.50;73.60;;;;;;5053409;28;20442;-88
2022/07/11 12:58:03;;;;;;;1.10;1.00;;;23.50;71.90;;;;;;5062037;28;20438;-88
2022/07/11 13:00:30;;;;;;;1.00;0.90;;;23.60;73.40;;;;;;5056452;28;20978;-88
2022/07/11 13:02:55;;;;;;;1.53;1.20;;;23.80;72.30;;;;;;5056418;28;20457;-88
2022/07/11 13:05:21;;;;;;;0.90;0.80;;;24.00;72.30;;;;;;5072943;28;21007;-88
2022/07/11 13:13:20;;;;;;;1.00;0.90;;;24.30;70.30;;;;;;5047751;28;20456;-89
2022/07/11 13:15:47;;;;;;;1.23;1.00;;;24.40;71.00;;;;;;5036663;28;20425;-89
2022/07/11 13:18:14;;;;;;;1.00;0.90;;;24.40;70.10;;;;;;5053197;28;20454;-88
2022/07/11 13:20:40;;;;;;;1.30;1.30;;;24.40;70.20;;;;;;5027778;28;20911;-87
2022/07/11 13:23:07;;;;;;;1.10;1.00;;;24.40;72.10;;;;;;5035510;28;20422;-87